sensor_id;sensor_type;location;lat;lon;timestamp;pressure;altitude;pressure_sealevel;temperature;humidity
63654;BME280;49809;47.418;19.080;2022-08-16T00:00:54;99546.34;;;21.94;66.33
63654;BME280;49809;47.418;19.080;2022-08-16T00:03:58;99547.69;;;21.88;65.86
63654;BME280;49809;47.418;19.080;2022-08-16T00:07:02;99552.97;;;21.85;66.56
63654;BME280;49809;47.418;19.080;2022-08-16T00:10:08;99554.78;;;21.81;66.91
63654;BME280;49809;47.418;19.080;2022-08-16T00:13:22;99559.84;;;21.82;67.47
63654;BME280;49809;47.418;19.080;2022-08-16T00:16:30;99565.13;;;21.79;66.72
63654;BME280;49809;47.418;19.080;2022-08-16T00:20:13;99561.91;;;21.73;67.27
63654;BME280;49809;47.418;19.080;2022-08-16T00:23:24;99566.41;;;21.69;67.27
63654;BME280;49809;47.418;19.080;2022-08-16T00:26:39;99560.91;;;21.65;67.61
63654;BME280;49809;47.418;19.080;2022-08-16T00:29:49;99568.44;;;21.60;67.82
63654;BME280;49809;47.418;19.080;2022-08-16T00:33:11;99566.13;;;21.58;67.91
63654;BME280;49809;47.418;19.080;2022-08-16T00:36:14;99566.69;;;21.52;68.30
63654;BME280;49809;47.418;19.080;2022-08-16T00:39:24;99554.25;;;21.47;68.94
63654;BME280;49809;47.418;19.080;2022-08-16T00:42:28;99559.53;;;21.44;69.46
63654;BME280;49809;47.418;19.080;2022-08-16T00:45:39;99563.59;;;21.38;68.99
63654;BME280;49809;47.418;19.080;2022-08-16T00:49:08;99567.63;;;21.32;69.32
63654;BME280;49809;47.418;19.080;2022-08-16T00:52:20;99555.66;;;21.29;69.21
63654;BME280;49809;47.418;19.080;2022-08-16T00:55:34;99560.16;;;21.25;69.62
63654;BME280;49809;47.418;19.080;2022-08-16T00:58:44;99561.41;;;21.15;71.09
63654;BME280;49809;47.418;19.080;2022-08-16T01:01:48;99563.16;;;21.11;70.61
63654;BME280;49809;47.418;19.080;2022-08-16T01:04:52;99557.09;;;21.02;71.09
63654;BME280;49809;47.418;19.080;2022-08-16T01:08:16;99561.59;;;20.98;71.06
63654;BME280;49809;47.418;19.080;2022-08-16T01:11:38;99569.00;;;20.89;71.56
63654;BME280;49809;47.418;19.080;2022-08-16T01:14:58;99567.75;;;20.87;71.98
63654;BME280;49809;47.418;19.080;2022-08-16T01:18:08;99571.91;;;20.84;72.89
63654;BME280;49809;47.418;19.080;2022-08-16T01:22:04;99569.78;;;20.77;72.96
63654;BME280;49809;47.418;19.080;2022-08-16T01:25:34;99577.97;;;20.69;73.57
63654;BME280;49809;47.418;19.080;2022-08-16T01:28:43;99572.81;;;20.64;73.82
63654;BME280;49809;47.418;19.080;2022-08-16T01:31:48;99576.19;;;20.61;74.09
63654;BME280;49809;47.418;19.080;2022-08-16T01:34:53;99579.97;;;20.60;74.44
63654;BME280;49809;47.418;19.080;2022-08-16T01:38:30;99576.63;;;20.51;75.14
63654;BME280;49809;47.418;19.080;2022-08-16T01:41:34;99575.72;;;20.47;74.99
63654;BME280;49809;47.418;19.080;2022-08-16T01:44:45;99577.84;;;20.41;75.22
63654;BME280;49809;47.418;19.080;2022-08-16T01:47:53;99577.25;;;20.35;75.64
63654;BME280;49809;47.418;19.080;2022-08-16T01:51:02;99581.91;;;20.26;76.04
63654;BME280;49809;47.418;19.080;2022-08-16T01:54:19;99581.44;;;20.24;76.25
63654;BME280;49809;47.418;19.080;2022-08-16T01:57:32;99584.34;;;20.19;76.41
63654;BME280;49809;47.418;19.080;2022-08-16T02:00:37;99577.84;;;20.20;76.76
63654;BME280;49809;47.418;19.080;2022-08-16T02:03:40;99569.34;;;20.18;77.41
63654;BME280;49809;47.418;19.080;2022-08-16T02:06:43;99558.16;;;20.16;76.53
63654;BME280;49809;47.418;19.080;2022-08-16T02:09:51;99563.31;;;20.21;76.38
63654;BME280;49809;47.418;19.080;2022-08-16T02:13:05;99570.78;;;20.16;76.20
63654;BME280;49809;47.418;19.080;2022-08-16T02:16:11;99573.81;;;20.14;77.07
63654;BME280;49809;47.418;19.080;2022-08-16T02:19:20;99574.53;;;20.23;77.12
63654;BME280;49809;47.418;19.080;2022-08-16T02:22:23;99570.69;;;20.12;76.91
63654;BME280;49809;47.418;19.080;2022-08-16T02:25:41;99571.56;;;20.04;76.95
63654;BME280;49809;47.418;19.080;2022-08-16T02:28:58;99574.25;;;20.04;77.03
63654;BME280;49809;47.418;19.080;2022-08-16T02:32:03;99562.91;;;19.99;77.37
63654;BME280;49809;47.418;19.080;2022-08-16T02:35:30;99565.22;;;19.88;77.96
63654;BME280;49809;47.418;19.080;2022-08-16T02:38:34;99570.47;;;19.84;78.45
63654;BME280;49809;47.418;19.080;2022-08-16T02:41:41;99556.91;;;19.81;78.18
63654;BME280;49809;47.418;19.080;2022-08-16T02:44:45;99568.31;;;19.78;78.82
63654;BME280;49809;47.418;19.080;2022-08-16T02:47:51;99564.94;;;19.69;78.54
63654;BME280;49809;47.418;19.080;2022-08-16T02:51:16;99569.03;;;19.66;78.90
63654;BME280;49809;47.418;19.080;2022-08-16T02:54:22;99567.34;;;19.62;79.48
63654;BME280;49809;47.418;19.080;2022-08-16T02:57:26;99571.00;;;19.57;79.88
63654;BME280;49809;47.418;19.080;2022-08-16T03:00:35;99569.78;;;19.55;79.74
63654;BME280;49809;47.418;19.080;2022-08-16T03:03:39;99571.22;;;19.52;79.97
63654;BME280;49809;47.418;19.080;2022-08-16T03:07:02;99563.03;;;19.48;80.24
63654;BME280;49809;47.418;19.080;2022-08-16T03:10:11;99573.31;;;19.46;80.87
63654;BME280;49809;47.418;19.080;2022-08-16T03:13:17;99567.50;;;19.44;80.81
63654;BME280;49809;47.418;19.080;2022-08-16T03:16:22;99566.53;;;19.40;81.11
63654;BME280;49809;47.418;19.080;2022-08-16T03:19:41;99568.75;;;19.38;81.28
63654;BME280;49809;47.418;19.080;2022-08-16T03:22:57;99571.00;;;19.36;81.61
63654;BME280;49809;47.418;19.080;2022-08-16T03:26:04;99573.34;;;19.38;81.83
63654;BME280;49809;47.418;19.080;2022-08-16T03:29:06;99572.56;;;19.37;82.02
63654;BME280;49809;47.418;19.080;2022-08-16T03:32:11;99582.66;;;19.40;81.64
63654;BME280;49809;47.418;19.080;2022-08-16T03:35:18;99584.66;;;19.43;81.77
63654;BME280;49809;47.418;19.080;2022-08-16T03:38:24;99585.66;;;19.39;82.16
63654;BME280;49809;47.418;19.080;2022-08-16T03:41:39;99592.47;;;19.36;81.24
63654;BME280;49809;47.418;19.080;2022-08-16T03:44:53;99605.41;;;19.34;81.33
63654;BME280;49809;47.418;19.080;2022-08-16T03:48:08;99612.81;;;19.37;81.30
63654;BME280;49809;47.418;19.080;2022-08-16T03:51:17;99617.97;;;19.42;81.58
63654;BME280;49809;47.418;19.080;2022-08-16T03:54:29;99607.88;;;19.48;81.53
63654;BME280;49809;47.418;19.080;2022-08-16T03:57:35;99615.41;;;19.55;81.01
63654;BME280;49809;47.418;19.080;2022-08-16T04:00:43;99621.50;;;19.64;81.30
63654;BME280;49809;47.418;19.080;2022-08-16T04:03:48;99616.72;;;19.69;81.15
63654;BME280;49809;47.418;19.080;2022-08-16T04:06:51;99628.19;;;19.78;80.72
63654;BME280;49809;47.418;19.080;2022-08-16T04:09:58;99630.31;;;19.85;81.10
63654;BME280;49809;47.418;19.080;2022-08-16T04:13:24;99629.94;;;19.95;80.05
63654;BME280;49809;47.418;19.080;2022-08-16T04:16:49;99622.34;;;19.97;78.40
63654;BME280;49809;47.418;19.080;2022-08-16T04:19:55;99621.25;;;20.10;79.47
63654;BME280;49809;47.418;19.080;2022-08-16T04:23:01;99619.94;;;20.16;80.11
63654;BME280;49809;47.418;19.080;2022-08-16T04:26:10;99623.22;;;20.22;81.11
63654;BME280;49809;47.418;19.080;2022-08-16T04:29:19;99626.81;;;20.26;80.17
63654;BME280;49809;47.418;19.080;2022-08-16T04:32:26;99623.62;;;20.32;79.59
63654;BME280;49809;47.418;19.080;2022-08-16T04:35:32;99621.63;;;20.42;78.95
63654;BME280;49809;47.418;19.080;2022-08-16T04:38:35;99623.09;;;20.51;79.56
63654;BME280;49809;47.418;19.080;2022-08-16T04:41:43;99622.31;;;20.63;79.54
63654;BME280;49809;47.418;19.080;2022-08-16T04:44:46;99627.94;;;20.70;77.37
63654;BME280;49809;47.418;19.080;2022-08-16T04:47:58;99628.31;;;20.80;76.58
63654;BME280;49809;47.418;19.080;2022-08-16T04:51:05;99626.28;;;20.90;77.41
63654;BME280;49809;47.418;19.080;2022-08-16T04:54:14;99628.31;;;21.05;76.19
63654;BME280;49809;47.418;19.080;2022-08-16T04:57:21;99629.00;;;21.26;73.78
63654;BME280;49809;47.418;19.080;2022-08-16T05:00:31;99629.66;;;21.47;73.16
63654;BME280;49809;47.418;19.080;2022-08-16T05:03:39;99627.69;;;21.60;70.41
63654;BME280;49809;47.418;19.080;2022-08-16T05:06:58;99630.81;;;21.74;70.63
63654;BME280;49809;47.418;19.080;2022-08-16T05:10:06;99634.16;;;21.95;69.85
63654;BME280;49809;47.418;19.080;2022-08-16T05:13:27;99639.34;;;22.16;68.20
63654;BME280;49809;47.418;19.080;2022-08-16T05:16:50;99637.41;;;22.44;67.25
63654;BME280;49809;47.418;19.080;2022-08-16T05:19:56;99642.81;;;22.60;64.12
63654;BME280;49809;47.418;19.080;2022-08-16T05:23:02;99643.63;;;22.76;63.71
63654;BME280;49809;47.418;19.080;2022-08-16T05:26:09;99656.25;;;23.04;62.97
63654;BME280;49809;47.418;19.080;2022-08-16T05:29:22;99662.69;;;23.15;60.82
63654;BME280;49809;47.418;19.080;2022-08-16T05:32:46;99652.91;;;23.26;62.79
63654;BME280;49809;47.418;19.080;2022-08-16T05:35:50;99652.31;;;23.32;64.77
63654;BME280;49809;47.418;19.080;2022-08-16T05:39:00;99657.34;;;23.34;62.20
63654;BME280;49809;47.418;19.080;2022-08-16T05:42:04;99653.69;;;23.42;62.41
63654;BME280;49809;47.418;19.080;2022-08-16T05:45:08;99646.47;;;23.46;60.92
63654;BME280;49809;47.418;19.080;2022-08-16T05:48:11;99646.47;;;23.46;62.23
63654;BME280;49809;47.418;19.080;2022-08-16T05:51:23;99652.88;;;23.57;62.20
63654;BME280;49809;47.418;19.080;2022-08-16T05:54:49;99640.13;;;23.58;60.60
63654;BME280;49809;47.418;19.080;2022-08-16T05:58:09;99639.38;;;23.57;59.99
63654;BME280;49809;47.418;19.080;2022-08-16T06:01:35;99649.41;;;23.76;59.44
63654;BME280;49809;47.418;19.080;2022-08-16T06:04:40;99642.37;;;23.91;58.36
63654;BME280;49809;47.418;19.080;2022-08-16T06:07:47;99649.34;;;24.11;59.05
63654;BME280;49809;47.418;19.080;2022-08-16T06:11:01;99648.50;;;24.26;59.39
63654;BME280;49809;47.418;19.080;2022-08-16T06:14:12;99645.22;;;24.36;58.34
63654;BME280;49809;47.418;19.080;2022-08-16T06:17:16;99653.47;;;24.66;58.11
63654;BME280;49809;47.418;19.080;2022-08-16T06:20:26;99656.84;;;24.82;55.55
63654;BME280;49809;47.418;19.080;2022-08-16T06:23:39;99659.06;;;25.22;53.66
63654;BME280;49809;47.418;19.080;2022-08-16T06:26:43;99654.28;;;25.12;54.33
63654;BME280;49809;47.418;19.080;2022-08-16T06:30:00;99660.59;;;25.76;54.08
63654;BME280;49809;47.418;19.080;2022-08-16T06:33:07;99659.97;;;25.86;54.11
63654;BME280;49809;47.418;19.080;2022-08-16T06:36:36;99669.25;;;25.85;52.40
63654;BME280;49809;47.418;19.080;2022-08-16T06:39:46;99670.06;;;26.19;51.62
63654;BME280;49809;47.418;19.080;2022-08-16T06:42:52;99668.34;;;26.37;52.05
63654;BME280;49809;47.418;19.080;2022-08-16T06:46:06;99660.94;;;26.74;50.58
63654;BME280;49809;47.418;19.080;2022-08-16T06:49:13;99667.19;;;26.82;49.61
63654;BME280;49809;47.418;19.080;2022-08-16T06:52:16;99667.16;;;26.75;48.41
63654;BME280;49809;47.418;19.080;2022-08-16T06:55:35;99657.31;;;27.00;47.67
63654;BME280;49809;47.418;19.080;2022-08-16T07:56:50;99680.47;;;30.16;41.29
63654;BME280;49809;47.418;19.080;2022-08-16T08:49:58;99704.31;;;31.70;34.30
63654;BME280;49809;47.418;19.080;2022-08-16T08:53:07;99704.41;;;32.27;33.00
63654;BME280;49809;47.418;19.080;2022-08-16T09:00:12;99703.59;;;32.84;32.19
63654;BME280;49809;47.418;19.080;2022-08-16T09:03:39;99693.84;;;33.30;30.89
63654;BME280;49809;47.418;19.080;2022-08-16T09:10:33;99702.66;;;34.92;29.71
63654;BME280;49809;47.418;19.080;2022-08-16T09:13:45;99697.09;;;35.56;28.64
63654;BME280;49809;47.418;19.080;2022-08-16T09:32:16;99684.69;;;37.41;26.41
63654;BME280;49809;47.418;19.080;2022-08-16T09:50:55;99674.94;;;37.15;25.24
63654;BME280;49809;47.418;19.080;2022-08-16T10:21:07;99663.31;;;39.96;20.10
63654;BME280;49809;47.418;19.080;2022-08-16T10:24:11;99663.66;;;39.62;20.74
63654;BME280;49809;47.418;19.080;2022-08-16T10:27:30;99657.44;;;39.94;19.97
63654;BME280;49809;47.418;19.080;2022-08-16T10:30:52;99668.00;;;40.56;19.97
63654;BME280;49809;47.418;19.080;2022-08-16T10:34:02;99661.84;;;39.13;20.09
63654;BME280;49809;47.418;19.080;2022-08-16T10:37:06;99661.34;;;39.61;18.92
63654;BME280;49809;47.418;19.080;2022-08-16T10:40:11;99667.41;;;40.10;18.79
63654;BME280;49809;47.418;19.080;2022-08-16T10:43:43;99669.16;;;39.89;19.77
63654;BME280;49809;47.418;19.080;2022-08-16T10:50:18;99659.75;;;40.47;18.11
63654;BME280;49809;47.418;19.080;2022-08-16T10:53:29;99662.28;;;40.60;18.23
63654;BME280;49809;47.418;19.080;2022-08-16T10:56:43;99659.00;;;39.95;19.04
63654;BME280;49809;47.418;19.080;2022-08-16T11:03:58;99649.03;;;40.64;19.46
63654;BME280;49809;47.418;19.080;2022-08-16T11:11:29;99641.81;;;41.73;17.24
63654;BME280;49809;47.418;19.080;2022-08-16T11:14:35;99630.78;;;41.78;17.47
63654;BME280;49809;47.418;19.080;2022-08-16T11:29:05;99622.25;;;42.11;17.38
63654;BME280;49809;47.418;19.080;2022-08-16T11:46:26;99650.97;;;42.58;17.21
63654;BME280;49809;47.418;19.080;2022-08-16T11:49:50;99649.34;;;39.73;21.01
63654;BME280;49809;47.418;19.080;2022-08-16T11:53:03;99656.22;;;37.97;23.09
63654;BME280;49809;47.418;19.080;2022-08-16T11:56:07;99658.69;;;36.57;25.23
63654;BME280;49809;47.418;19.080;2022-08-16T11:59:10;99651.25;;;35.05;27.28
63654;BME280;49809;47.418;19.080;2022-08-16T12:02:14;99653.69;;;34.18;26.45
63654;BME280;49809;47.418;19.080;2022-08-16T12:05:35;99641.28;;;34.10;26.50
63654;BME280;49809;47.418;19.080;2022-08-16T12:08:45;99639.47;;;33.25;26.31
63654;BME280;49809;47.418;19.080;2022-08-16T12:11:48;99638.16;;;33.52;24.11
63654;BME280;49809;47.418;19.080;2022-08-16T12:14:56;99642.22;;;33.01;28.54
63654;BME280;49809;47.418;19.080;2022-08-16T12:18:10;99646.44;;;32.32;29.96
63654;BME280;49809;47.418;19.080;2022-08-16T12:21:39;99652.47;;;32.20;29.08
63654;BME280;49809;47.418;19.080;2022-08-16T12:25:18;99651.56;;;31.97;32.95
63654;BME280;49809;47.418;19.080;2022-08-16T12:28:24;99651.50;;;31.32;35.29
63654;BME280;49809;47.418;19.080;2022-08-16T12:31:54;99638.19;;;31.72;35.73
63654;BME280;49809;47.418;19.080;2022-08-16T12:35:04;99636.34;;;31.65;33.78
63654;BME280;49809;47.418;19.080;2022-08-16T12:38:10;99619.25;;;31.88;36.91
63654;BME280;49809;47.418;19.080;2022-08-16T12:41:36;99621.53;;;32.23;32.74
63654;BME280;49809;47.418;19.080;2022-08-16T12:44:47;99614.56;;;32.92;32.42
63654;BME280;49809;47.418;19.080;2022-08-16T12:47:51;99609.19;;;33.08;32.84
63654;BME280;49809;47.418;19.080;2022-08-16T12:51:38;99621.13;;;33.61;28.61
63654;BME280;49809;47.418;19.080;2022-08-16T12:55:24;99617.38;;;33.91;26.91
63654;BME280;49809;47.418;19.080;2022-08-16T12:58:43;99632.72;;;34.76;27.83
63654;BME280;49809;47.418;19.080;2022-08-16T13:01:55;99634.94;;;34.65;31.42
63654;BME280;49809;47.418;19.080;2022-08-16T13:05:03;99637.34;;;34.63;32.52
63654;BME280;49809;47.418;19.080;2022-08-16T13:08:16;99626.09;;;34.41;29.10
63654;BME280;49809;47.418;19.080;2022-08-16T13:11:29;99627.91;;;34.64;30.24
63654;BME280;49809;47.418;19.080;2022-08-16T13:14:45;99617.06;;;34.25;31.09
63654;BME280;49809;47.418;19.080;2022-08-16T13:17:54;99614.97;;;34.13;30.08
63654;BME280;49809;47.418;19.080;2022-08-16T13:20:58;99609.00;;;34.18;30.44
63654;BME280;49809;47.418;19.080;2022-08-16T13:24:01;99606.69;;;34.48;30.77
63654;BME280;49809;47.418;19.080;2022-08-16T13:27:06;99603.25;;;34.77;29.52
63654;BME280;49809;47.418;19.080;2022-08-16T13:33:43;99603.19;;;33.76;29.37
63654;BME280;49809;47.418;19.080;2022-08-16T13:36:48;99603.34;;;33.89;28.81
63654;BME280;49809;47.418;19.080;2022-08-16T13:39:57;99609.94;;;33.91;29.19
63654;BME280;49809;47.418;19.080;2022-08-16T13:43:00;99608.22;;;34.33;27.39
63654;BME280;49809;47.418;19.080;2022-08-16T13:46:03;99618.28;;;34.72;27.84
63654;BME280;49809;47.418;19.080;2022-08-16T13:49:08;99612.94;;;34.65;27.88
63654;BME280;49809;47.418;19.080;2022-08-16T13:52:13;99607.81;;;34.83;28.50
63654;BME280;49809;47.418;19.080;2022-08-16T13:55:15;99612.78;;;34.88;27.21
63654;BME280;49809;47.418;19.080;2022-08-16T13:58:20;99600.31;;;35.00;27.50
63654;BME280;49809;47.418;19.080;2022-08-16T14:01:41;99608.06;;;35.34;27.90
63654;BME280;49809;47.418;19.080;2022-08-16T14:04:46;99599.25;;;35.39;27.66
63654;BME280;49809;47.418;19.080;2022-08-16T14:08:09;99600.88;;;35.65;27.40
63654;BME280;49809;47.418;19.080;2022-08-16T14:11:16;99600.97;;;35.04;28.10
63654;BME280;49809;47.418;19.080;2022-08-16T14:17:31;99583.75;;;34.71;28.65
63654;BME280;49809;47.418;19.080;2022-08-16T14:20:49;99579.28;;;34.61;28.16
63654;BME280;49809;47.418;19.080;2022-08-16T14:23:52;99583.75;;;34.71;27.58
63654;BME280;49809;47.418;19.080;2022-08-16T14:26:56;99585.78;;;35.00;26.71
63654;BME280;49809;47.418;19.080;2022-08-16T14:30:01;99580.13;;;34.58;26.90
63654;BME280;49809;47.418;19.080;2022-08-16T14:33:04;99578.44;;;34.32;27.27
63654;BME280;49809;47.418;19.080;2022-08-16T14:36:08;99576.97;;;34.27;26.87
63654;BME280;49809;47.418;19.080;2022-08-16T14:39:15;99584.72;;;34.32;27.46
63654;BME280;49809;47.418;19.080;2022-08-16T14:42:20;99585.25;;;34.08;26.77
63654;BME280;49809;47.418;19.080;2022-08-16T14:45:24;99585.56;;;33.93;27.46
63654;BME280;49809;47.418;19.080;2022-08-16T14:48:48;99592.41;;;34.21;27.09
63654;BME280;49809;47.418;19.080;2022-08-16T14:52:21;99589.44;;;33.96;27.61
63654;BME280;49809;47.418;19.080;2022-08-16T14:55:48;99591.81;;;33.94;27.03
63654;BME280;49809;47.418;19.080;2022-08-16T14:59:17;99596.22;;;33.52;27.45
63654;BME280;49809;47.418;19.080;2022-08-16T15:03:06;99586.78;;;34.09;27.00
63654;BME280;49809;47.418;19.080;2022-08-16T15:06:44;99581.69;;;34.27;26.72
63654;BME280;49809;47.418;19.080;2022-08-16T15:13:52;99616.53;;;34.30;25.12
63654;BME280;49809;47.418;19.080;2022-08-16T15:17:19;99622.63;;;34.21;27.64
63654;BME280;49809;47.418;19.080;2022-08-16T15:20:55;99617.69;;;33.77;28.30
63654;BME280;49809;47.418;19.080;2022-08-16T15:24:26;99619.19;;;34.17;26.48
63654;BME280;49809;47.418;19.080;2022-08-16T15:27:49;99621.91;;;33.81;28.40
63654;BME280;49809;47.418;19.080;2022-08-16T15:39:24;99651.03;;;31.41;34.68
63654;BME280;49809;47.418;19.080;2022-08-16T15:42:59;99648.69;;;31.02;33.35
63654;BME280;49809;47.418;19.080;2022-08-16T15:46:08;99652.84;;;31.17;34.19
63654;BME280;49809;47.418;19.080;2022-08-16T15:49:49;99654.16;;;31.02;36.51
63654;BME280;49809;47.418;19.080;2022-08-16T15:53:13;99647.34;;;30.10;46.89
63654;BME280;49809;47.418;19.080;2022-08-16T15:56:43;99637.88;;;28.92;51.99
63654;BME280;49809;47.418;19.080;2022-08-16T16:00:10;99632.78;;;28.41;54.54
63654;BME280;49809;47.418;19.080;2022-08-16T16:03:30;99626.94;;;28.43;48.23
63654;BME280;49809;47.418;19.080;2022-08-16T16:06:58;99633.97;;;28.65;49.12
63654;BME280;49809;47.418;19.080;2022-08-16T16:10:16;99633.59;;;28.70;46.42
63654;BME280;49809;47.418;19.080;2022-08-16T16:13:53;99634.00;;;28.72;46.73
63654;BME280;49809;47.418;19.080;2022-08-16T16:16:57;99633.19;;;28.68;45.00
63654;BME280;49809;47.418;19.080;2022-08-16T16:20:04;99634.75;;;28.69;45.40
63654;BME280;49809;47.418;19.080;2022-08-16T16:23:35;99647.59;;;28.72;43.71
63654;BME280;49809;47.418;19.080;2022-08-16T16:26:58;99640.56;;;28.50;42.47
63654;BME280;49809;47.418;19.080;2022-08-16T16:30:16;99647.97;;;28.46;41.67
63654;BME280;49809;47.418;19.080;2022-08-16T16:33:44;99654.94;;;28.40;41.94
63654;BME280;49809;47.418;19.080;2022-08-16T16:37:15;99665.03;;;28.43;41.66
63654;BME280;49809;47.418;19.080;2022-08-16T16:40:19;99665.84;;;28.54;42.29
63654;BME280;49809;47.418;19.080;2022-08-16T16:43:51;99660.41;;;28.61;43.07
63654;BME280;49809;47.418;19.080;2022-08-16T16:47:09;99653.03;;;28.65;42.36
63654;BME280;49809;47.418;19.080;2022-08-16T16:50:13;99648.00;;;28.81;40.70
63654;BME280;49809;47.418;19.080;2022-08-16T16:53:39;99649.16;;;28.73;42.45
63654;BME280;49809;47.418;19.080;2022-08-16T16:57:04;99656.56;;;28.87;40.63
63654;BME280;49809;47.418;19.080;2022-08-16T17:00:26;99649.56;;;28.93;38.28
63654;BME280;49809;47.418;19.080;2022-08-16T17:03:52;99655.38;;;28.91;37.38
63654;BME280;49809;47.418;19.080;2022-08-16T17:06:57;99651.88;;;28.91;38.11
63654;BME280;49809;47.418;19.080;2022-08-16T17:10:03;99644.47;;;28.95;37.09
63654;BME280;49809;47.418;19.080;2022-08-16T17:13:11;99654.22;;;28.71;38.25
63654;BME280;49809;47.418;19.080;2022-08-16T17:16:19;99673.69;;;28.80;37.66
63654;BME280;49809;47.418;19.080;2022-08-16T17:19:23;99658.09;;;28.70;39.21
63654;BME280;49809;47.418;19.080;2022-08-16T17:22:40;99666.66;;;28.72;37.40
63654;BME280;49809;47.418;19.080;2022-08-16T17:25:45;99686.91;;;28.71;37.93
63654;BME280;49809;47.418;19.080;2022-08-16T17:28:58;99696.97;;;28.60;38.02
63654;BME280;49809;47.418;19.080;2022-08-16T17:32:14;99693.06;;;28.58;38.17
63654;BME280;49809;47.418;19.080;2022-08-16T17:35:41;99683.75;;;28.55;39.03
63654;BME280;49809;47.418;19.080;2022-08-16T17:39:02;99684.50;;;28.52;39.09
63654;BME280;49809;47.418;19.080;2022-08-16T17:42:11;99703.16;;;28.36;39.91
63654;BME280;49809;47.418;19.080;2022-08-16T17:45:24;99712.44;;;28.28;40.09
63654;BME280;49809;47.418;19.080;2022-08-16T17:48:31;99711.22;;;28.15;41.63
63654;BME280;49809;47.418;19.080;2022-08-16T17:51:56;99720.09;;;27.97;41.06
63654;BME280;49809;47.418;19.080;2022-08-16T17:55:29;99724.69;;;27.90;42.56
63654;BME280;49809;47.418;19.080;2022-08-16T17:58:44;99724.63;;;27.79;42.91
63654;BME280;49809;47.418;19.080;2022-08-16T18:01:49;99719.97;;;27.76;42.74
63654;BME280;49809;47.418;19.080;2022-08-16T18:04:53;99727.31;;;27.72;43.72
63654;BME280;49809;47.418;19.080;2022-08-16T18:08:21;99734.25;;;27.62;45.27
63654;BME280;49809;47.418;19.080;2022-08-16T18:11:51;99740.41;;;27.56;45.26
63654;BME280;49809;47.418;19.080;2022-08-16T18:15:25;99741.87;;;27.46;46.11
63654;BME280;49809;47.418;19.080;2022-08-16T18:18:57;99738.72;;;27.37;45.97
63654;BME280;49809;47.418;19.080;2022-08-16T18:22:24;99748.75;;;27.30;45.45
63654;BME280;49809;47.418;19.080;2022-08-16T18:25:57;99756.84;;;27.22;45.67
63654;BME280;49809;47.418;19.080;2022-08-16T18:29:19;99759.91;;;27.17;46.42
63654;BME280;49809;47.418;19.080;2022-08-16T18:32:55;99757.87;;;27.07;46.21
63654;BME280;49809;47.418;19.080;2022-08-16T18:40:12;99756.34;;;26.73;48.62
63654;BME280;49809;47.418;19.080;2022-08-16T18:43:45;99750.44;;;26.64;48.68
63654;BME280;49809;47.418;19.080;2022-08-16T18:47:19;99750.06;;;26.65;47.90
63654;BME280;49809;47.418;19.080;2022-08-16T18:50:48;99752.28;;;26.56;48.45
63654;BME280;49809;47.418;19.080;2022-08-16T18:54:14;99754.53;;;26.47;49.21
63654;BME280;49809;47.418;19.080;2022-08-16T18:57:49;99756.06;;;26.48;47.89
63654;BME280;49809;47.418;19.080;2022-08-16T19:01:24;99758.25;;;26.35;49.11
63654;BME280;49809;47.418;19.080;2022-08-16T19:04:57;99765.69;;;26.12;50.28
63654;BME280;49809;47.418;19.080;2022-08-16T19:08:23;99761.56;;;25.95;52.00
63654;BME280;49809;47.418;19.080;2022-08-16T19:11:55;99749.72;;;25.77;52.61
63654;BME280;49809;47.418;19.080;2022-08-16T19:15:34;99754.88;;;25.60;53.46
63654;BME280;49809;47.418;19.080;2022-08-16T19:18:58;99759.28;;;25.45;54.37
63654;BME280;49809;47.418;19.080;2022-08-16T19:22:24;99760.53;;;25.28;54.90
63654;BME280;49809;47.418;19.080;2022-08-16T19:26:10;99758.81;;;25.17;55.42
63654;BME280;49809;47.418;19.080;2022-08-16T19:29:46;99758.56;;;25.02;55.81
63654;BME280;49809;47.418;19.080;2022-08-16T19:36:45;99755.50;;;24.85;57.25
63654;BME280;49809;47.418;19.080;2022-08-16T19:40:16;99757.25;;;24.74;56.54
63654;BME280;49809;47.418;19.080;2022-08-16T19:43:46;99756.31;;;24.66;56.90
63654;BME280;49809;47.418;19.080;2022-08-16T19:47:11;99766.94;;;24.55;58.39
63654;BME280;49809;47.418;19.080;2022-08-16T19:54:26;99762.75;;;24.39;58.63
63654;BME280;49809;47.418;19.080;2022-08-16T20:01:26;99761.06;;;24.15;59.03
63654;BME280;49809;47.418;19.080;2022-08-16T20:05:02;99765.53;;;24.07;60.03
63654;BME280;49809;47.418;19.080;2022-08-16T20:12:21;99765.88;;;23.87;60.40
63654;BME280;49809;47.418;19.080;2022-08-16T20:16:01;99777.72;;;23.82;61.45
63654;BME280;49809;47.418;19.080;2022-08-16T20:19:35;99771.38;;;23.74;60.50
63654;BME280;49809;47.418;19.080;2022-08-16T20:22:56;99772.78;;;23.68;62.18
63654;BME280;49809;47.418;19.080;2022-08-16T20:29:31;99783.97;;;23.51;63.41
63654;BME280;49809;47.418;19.080;2022-08-16T20:32:46;99792.22;;;23.43;64.12
63654;BME280;49809;47.418;19.080;2022-08-16T20:36:03;99787.41;;;23.36;64.53
63654;BME280;49809;47.418;19.080;2022-08-16T20:39:10;99791.75;;;23.25;64.62
63654;BME280;49809;47.418;19.080;2022-08-16T20:43:08;99786.53;;;23.16;65.17
63654;BME280;49809;47.418;19.080;2022-08-16T20:46:11;99788.94;;;23.06;65.21
63654;BME280;49809;47.418;19.080;2022-08-16T20:49:33;99787.75;;;23.03;65.27
63654;BME280;49809;47.418;19.080;2022-08-16T20:52:51;99779.59;;;22.87;65.91
63654;BME280;49809;47.418;19.080;2022-08-16T20:55:53;99788.41;;;22.84;65.72
63654;BME280;49809;47.418;19.080;2022-08-16T20:58:56;99777.75;;;22.76;66.02
63654;BME280;49809;47.418;19.080;2022-08-16T21:02:03;99788.78;;;22.71;66.37
63654;BME280;49809;47.418;19.080;2022-08-16T21:05:10;99781.94;;;22.61;67.27
63654;BME280;49809;47.418;19.080;2022-08-16T21:08:19;99786.03;;;22.55;67.00
63654;BME280;49809;47.418;19.080;2022-08-16T21:11:41;99784.25;;;22.47;67.69